Time;durP1;ratioP1;P1;durP2;ratioP2;P2;SDS_P1;SDS_P2;PMS_P1;PMS_P2;Temp;Humidity;BMP_temperature;BMP_pressure;BME280_temperature;BME280_humidity;BME280_pressure;Samples;Min_cycle;Max_cycle;Signal;HPM_P1;HPM_P2
2022/05/12 00:02:19;;;;;;;8.45;4.32;;;;;;;;;;5088381;28;20509;-73
2022/05/12 00:04:45;;;;;;;6.82;4.05;;;;;;;;;;5093723;28;20039;-73
2022/05/12 00:07:11;;;;;;;9.98;4.30;;;;;;;;;;5091850;28;20244;-72
2022/05/12 00:09:37;;;;;;;7.25;4.10;;;;;;;;;;5090892;28;20035;-72
2022/05/12 00:12:04;;;;;;;10.15;4.53;;;;;;;;;;5093032;28;20032;-73
2022/05/12 00:14:30;;;;;;;7.13;4.25;;;;;;;;;;5096241;27;20019;-74
2022/05/12 00:17:00;;;;;;;5.85;4.35;;;;;;;;;;5094266;28;20020;-73
2022/05/12 00:19:27;;;;;;;7.88;3.97;;;;;;;;;;5091359;28;20070;-73
2022/05/12 00:21:54;;;;;;;6.72;3.90;;;;;;;;;;5098417;27;20430;-72
2022/05/12 00:24:20;;;;;;;10.93;3.95;;;;;;;;;;5090244;28;20024;-74
2022/05/12 00:26:47;;;;;;;6.97;4.10;;;;;;;;;;5095016;28;20567;-73
2022/05/12 00:29:13;;;;;;;7.85;3.80;;;;;;;;;;5090006;28;20483;-73
2022/05/12 00:31:40;;;;;;;8.57;3.50;;;;;;;;;;5087806;28;20460;-73
2022/05/12 00:34:07;;;;;;;13.02;3.92;;;;;;;;;;5094624;28;20495;-72
2022/05/12 00:36:34;;;;;;;11.20;4.20;;;;;;;;;;5088445;28;20036;-74
2022/05/12 00:39:00;;;;;;;13.75;4.47;;;;;;;;;;5099134;28;20024;-74
2022/05/12 00:41:26;;;;;;;6.90;4.07;;;;;;;;;;5088380;28;20028;-72
2022/05/12 00:43:55;;;;;;;11.90;4.97;;;;;;;;;;5087899;28;20026;-72
2022/05/12 00:46:23;;;;;;;8.02;4.57;;;;;;;;;;5090516;27;20035;-74
2022/05/12 00:48:50;;;;;;;11.13;4.85;;;;;;;;;;5097554;28;20026;-73
2022/05/12 00:51:25;;;;;;;11.35;4.53;;;;;;;;;;5088366;28;20107;-73
2022/05/12 00:53:53;;;;;;;6.28;4.30;;;;;;;;;;5094978;28;20031;-73
2022/05/12 00:56:21;;;;;;;7.88;4.13;;;;;;;;;;5103603;28;20073;-73
2022/05/12 00:58:50;;;;;;;6.75;4.05;;;;;;;;;;5085974;28;20036;-73
2022/05/12 01:01:17;;;;;;;6.85;3.70;;;;;;;;;;5093688;28;20024;-73
2022/05/12 01:03:44;;;;;;;7.55;4.47;;;;;;;;;;5095012;28;20023;-72
2022/05/12 01:06:11;;;;;;;8.07;4.22;;;;;;;;;;5094282;28;20024;-72
2022/05/12 01:08:37;;;;;;;7.20;3.97;;;;;;;;;;5101138;28;20031;-74
2022/05/12 01:11:09;;;;;;;10.18;4.35;;;;;;;;;;5109728;27;20036;-72
2022/05/12 01:13:36;;;;;;;8.18;4.57;;;;;;;;;;5096212;27;20069;-72
2022/05/12 01:16:02;;;;;;;7.32;4.18;;;;;;;;;;5100443;28;20024;-72
2022/05/12 01:18:30;;;;;;;7.25;4.20;;;;;;;;;;5094072;28;20055;-73
2022/05/12 01:20:57;;;;;;;7.78;3.28;;;;;;;;;;5096131;28;20119;-72
2022/05/12 01:23:29;;;;;;;8.05;3.60;;;;;;;;;;5101790;28;20047;-72
2022/05/12 01:26:04;;;;;;;8.70;4.70;;;;;;;;;;5090871;28;20046;-71
2022/05/12 01:28:30;;;;;;;8.68;4.22;;;;;;;;;;5095909;28;20455;-72
2022/05/12 01:30:56;;;;;;;10.75;3.88;;;;;;;;;;5091674;28;20123;-74
2022/05/12 01:33:23;;;;;;;10.05;3.70;;;;;;;;;;5096723;28;20027;-72
2022/05/12 01:35:49;;;;;;;11.35;4.20;;;;;;;;;;5093920;28;20024;-72
2022/05/12 01:38:16;;;;;;;8.48;4.13;;;;;;;;;;5094437;28;20487;-72
2022/05/12 01:40:43;;;;;;;11.23;4.50;;;;;;;;;;5094955;28;20123;-72
2022/05/12 01:43:09;;;;;;;10.68;4.43;;;;;;;;;;5094924;28;20019;-73
2022/05/12 01:45:36;;;;;;;6.70;4.13;;;;;;;;;;5090058;28;20410;-75
2022/05/12 01:48:02;;;;;;;9.95;4.70;;;;;;;;;;5088230;28;20525;-72
2022/05/12 01:50:28;;;;;;;9.02;3.88;;;;;;;;;;5093231;28;20101;-72
2022/05/12 01:52:54;;;;;;;7.63;3.55;;;;;;;;;;5091940;28;20780;-72
2022/05/12 01:55:23;;;;;;;6.13;4.20;;;;;;;;;;5089008;28;20019;-72
2022/05/12 01:57:50;;;;;;;11.15;4.15;;;;;;;;;;5091825;28;20016;-72
2022/05/12 02:00:18;;;;;;;7.13;3.88;;;;;;;;;;5097950;27;20019;-72
2022/05/12 02:02:44;;;;;;;9.55;3.75;;;;;;;;;;5099616;27;20387;-72
2022/05/12 02:05:11;;;;;;;8.50;4.75;;;;;;;;;;5096291;28;20056;-72
2022/05/12 02:07:41;;;;;;;7.65;3.80;;;;;;;;;;5100010;28;20376;-72
2022/05/12 02:10:08;;;;;;;9.57;4.38;;;;;;;;;;5094700;28;20032;-71
2022/05/12 02:12:34;;;;;;;6.68;3.83;;;;;;;;;;5091888;28;20406;-71
2022/05/12 02:15:00;;;;;;;8.18;4.10;;;;;;;;;;5095411;28;20076;-72
2022/05/12 02:17:27;;;;;;;7.40;3.28;;;;;;;;;;5091594;28;20399;-72
2022/05/12 02:19:53;;;;;;;6.70;3.42;;;;;;;;;;5097044;27;20079;-73
2022/05/12 02:22:20;;;;;;;7.05;3.42;;;;;;;;;;5087186;28;20086;-72
2022/05/12 02:24:46;;;;;;;6.60;3.95;;;;;;;;;;5094885;28;20369;-74
2022/05/12 02:27:13;;;;;;;8.30;3.42;;;;;;;;;;5086141;28;20028;-72
2022/05/12 02:29:39;;;;;;;10.95;4.38;;;;;;;;;;5083125;28;20131;-72
2022/05/12 02:32:05;;;;;;;12.27;3.80;;;;;;;;;;5098309;28;20031;-72
2022/05/12 02:34:32;;;;;;;5.95;3.90;;;;;;;;;;5094978;28;20065;-74
2022/05/12 02:37:01;;;;;;;4.63;3.78;;;;;;;;;;5088864;28;20495;-73
2022/05/12 02:39:31;;;;;;;7.10;4.00;;;;;;;;;;5089888;28;20056;-73
2022/05/12 02:41:57;;;;;;;9.85;4.25;;;;;;;;;;5091606;28;20084;-73
2022/05/12 02:44:23;;;;;;;6.35;3.53;;;;;;;;;;5089436;28;20577;-75
2022/05/12 02:46:50;;;;;;;11.20;4.78;;;;;;;;;;5088371;28;20036;-75
2022/05/12 02:49:16;;;;;;;6.20;3.85;;;;;;;;;;5091239;28;20024;-72
2022/05/12 02:51:45;;;;;;;6.63;4.18;;;;;;;;;;5098306;28;20531;-72
2022/05/12 02:54:12;;;;;;;11.98;3.95;;;;;;;;;;5100253;28;20028;-73
2022/05/12 02:56:39;;;;;;;7.00;3.95;;;;;;;;;;5098160;28;20032;-73
2022/05/12 02:59:08;;;;;;;11.13;3.90;;;;;;;;;;5098182;28;20464;-73
2022/05/12 03:01:35;;;;;;;7.50;3.47;;;;;;;;;;5109312;28;20440;-72
2022/05/12 03:04:01;;;;;;;6.28;3.97;;;;;;;;;;5103304;28;20016;-71
2022/05/12 03:06:27;;;;;;;8.60;4.50;;;;;;;;;;5100753;28;20017;-72
2022/05/12 03:08:54;;;;;;;9.73;4.55;;;;;;;;;;5104240;28;20077;-72
2022/05/12 03:11:21;;;;;;;9.05;4.20;;;;;;;;;;5097974;28;20212;-72
2022/05/12 03:13:49;;;;;;;7.85;4.30;;;;;;;;;;5100133;28;20537;-72
2022/05/12 03:16:16;;;;;;;8.95;4.93;;;;;;;;;;5099068;28;20031;-72
2022/05/12 03:18:46;;;;;;;11.20;4.32;;;;;;;;;;5097452;27;20046;-72
2022/05/12 03:21:13;;;;;;;8.82;4.80;;;;;;;;;;5093636;27;20597;-72
2022/05/12 03:23:40;;;;;;;8.30;4.40;;;;;;;;;;5097703;28;20024;-72
2022/05/12 03:26:06;;;;;;;8.63;5.15;;;;;;;;;;5098505;28;20060;-72
2022/05/12 03:28:33;;;;;;;13.48;5.55;;;;;;;;;;5099258;28;20562;-74
2022/05/12 03:31:00;;;;;;;7.13;5.60;;;;;;;;;;5092423;28;20047;-72
2022/05/12 03:33:26;;;;;;;7.80;5.72;;;;;;;;;;5097252;28;20020;-72
2022/05/12 03:35:52;;;;;;;13.18;5.78;;;;;;;;;;5095306;28;20031;-72
2022/05/12 03:38:19;;;;;;;8.48;5.38;;;;;;;;;;5093765;28;20042;-73
2022/05/12 03:40:45;;;;;;;8.55;5.95;;;;;;;;;;5093735;27;20553;-73
2022/05/12 03:44:46;;;;;;;8.35;5.70;;;;;;;;;;5093769;27;20039;-73
2022/05/12 03:45:58;;;;;;;14.30;6.70;;;;;;;;;;5087073;27;20114;-72
2022/05/12 03:48:24;;;;;;;10.50;7.82;;;;;;;;;;5085626;27;20545;-72
2022/05/12 03:50:50;;;;;;;14.43;7.50;;;;;;;;;;5092212;27;20498;-74
2022/05/12 03:53:16;;;;;;;13.82;7.03;;;;;;;;;;5094544;27;20020;-75
2022/05/12 03:55:42;;;;;;;9.52;6.40;;;;;;;;;;5090923;27;20032;-75
2022/05/12 03:58:09;;;;;;;13.07;7.53;;;;;;;;;;5095361;28;20471;-73
2022/05/12 04:00:35;;;;;;;9.98;6.10;;;;;;;;;;5094961;28;20024;-72
2022/05/12 04:03:01;;;;;;;8.95;5.93;;;;;;;;;;5105557;28;20489;-75
2022/05/12 04:05:31;;;;;;;8.68;5.30;;;;;;;;;;5093448;27;20142;-72
2022/05/12 04:07:57;;;;;;;14.00;5.60;;;;;;;;;;5091679;27;20028;-73
2022/05/12 04:10:24;;;;;;;10.55;6.35;;;;;;;;;;5090391;27;20040;-75
2022/05/12 04:12:50;;;;;;;11.00;5.50;;;;;;;;;;5093753;27;20032;-75
2022/05/12 04:15:17;;;;;;;11.75;5.93;;;;;;;;;;5093107;27;20065;-77
2022/05/12 04:17:44;;;;;;;8.55;6.00;;;;;;;;;;5093279;27;20024;-76
2022/05/12 04:20:12;;;;;;;12.48;5.80;;;;;;;;;;5093105;28;20208;-73
2022/05/12 04:22:43;;;;;;;10.50;6.00;;;;;;;;;;5084679;28;20027;-76
2022/05/12 04:25:09;;;;;;;9.13;5.90;;;;;;;;;;5084529;28;20355;-73
2022/05/12 04:27:36;;;;;;;8.85;5.72;;;;;;;;;;5082584;28;20477;-76
2022/05/12 04:30:03;;;;;;;10.43;5.80;;;;;;;;;;5094182;28;20506;-76
2022/05/12 04:32:31;;;;;;;15.80;6.10;;;;;;;;;;5104834;28;20192;-75
2022/05/12 04:35:14;;;;;;;8.52;5.57;;;;;;;;;;5103225;28;20019;-76
2022/05/12 04:37:46;;;;;;;10.68;5.82;;;;;;;;;;5093410;28;20035;-73
2022/05/12 04:40:18;;;;;;;11.18;6.75;;;;;;;;;;5086499;28;20036;-72
2022/05/12 04:42:44;;;;;;;;;;;;;;;;;;5082691;28;20039;-72
2022/05/12 04:45:11;;;;;;;9.77;5.82;;;;;;;;;;5083610;28;20527;-73
2022/05/12 04:47:39;;;;;;;9.00;6.53;;;;;;;;;;5100641;27;20047;-73
2022/05/12 04:50:06;;;;;;;13.02;8.50;;;;;;;;;;5089639;28;20105;-74
2022/05/12 04:52:32;;;;;;;11.13;6.85;;;;;;;;;;5095410;28;20391;-72
2022/05/12 04:54:59;;;;;;;12.10;8.30;;;;;;;;;;5101448;28;20020;-74
2022/05/12 04:57:25;;;;;;;12.35;8.05;;;;;;;;;;5097504;28;20035;-72
2022/05/12 04:59:55;;;;;;;15.82;7.80;;;;;;;;;;5081629;28;20035;-73
2022/05/12 05:02:21;;;;;;;11.52;8.18;;;;;;;;;;5081404;28;20026;-72
2022/05/12 05:04:48;;;;;;;17.95;9.95;;;;;;;;;;5085947;28;20654;-73
2022/05/12 05:07:14;;;;;;;15.35;9.35;;;;;;;;;;5080254;28;20141;-75
2022/05/12 05:09:41;;;;;;;16.80;10.23;;;;;;;;;;5080685;28;20031;-72
2022/05/12 05:12:07;;;;;;;20.83;10.60;;;;;;;;;;5081668;28;20035;-72
2022/05/12 05:14:33;;;;;;;20.02;10.38;;;;;;;;;;5081009;28;20038;-73
2022/05/12 05:17:00;;;;;;;14.50;9.65;;;;;;;;;;5079916;28;20024;-72
2022/05/12 05:19:26;;;;;;;17.77;8.90;;;;;;;;;;5083407;28;20048;-73
2022/05/12 05:21:53;;;;;;;14.23;10.20;;;;;;;;;;5092892;28;20027;-72
2022/05/12 05:24:20;;;;;;;13.27;8.95;;;;;;;;;;5101348;28;20123;-72
2022/05/12 05:26:46;;;;;;;13.95;8.95;;;;;;;;;;5100224;28;20032;-71
2022/05/12 05:29:12;;;;;;;18.13;10.38;;;;;;;;;;5082936;28;20020;-75
2022/05/12 05:31:39;;;;;;;14.23;8.55;;;;;;;;;;5081519;28;20710;-72
2022/05/12 05:34:05;;;;;;;12.85;7.85;;;;;;;;;;5080634;28;20027;-74
2022/05/12 05:36:31;;;;;;;13.45;7.15;;;;;;;;;;5079075;27;20671;-73
2022/05/12 05:38:58;;;;;;;13.93;8.30;;;;;;;;;;5089642;28;20829;-73
2022/05/12 05:41:24;;;;;;;11.98;7.43;;;;;;;;;;5090267;28;20047;-73
2022/05/12 05:43:50;;;;;;;11.98;7.50;;;;;;;;;;5089562;28;20376;-74
2022/05/12 05:46:16;;;;;;;13.15;8.02;;;;;;;;;;5087069;28;20027;-74
2022/05/12 05:48:43;;;;;;;21.92;9.07;;;;;;;;;;5092475;28;20023;-72
2022/05/12 05:53:54;;;;;;;14.68;7.57;;;;;;;;;;5093485;28;20575;-73
2022/05/12 05:56:20;;;;;;;14.02;8.10;;;;;;;;;;5086360;28;20047;-72
2022/05/12 05:58:47;;;;;;;17.38;7.97;;;;;;;;;;5089734;27;20024;-72
2022/05/12 06:01:14;;;;;;;16.95;7.85;;;;;;;;;;5093405;28;20028;-72
2022/05/12 06:03:40;;;;;;;12.48;7.13;;;;;;;;;;5085675;28;20020;-72
2022/05/12 06:06:06;;;;;;;13.02;7.82;;;;;;;;;;5100790;28;20072;-72
2022/05/12 06:08:33;;;;;;;14.52;6.95;;;;;;;;;;5089220;28;20028;-72
2022/05/12 06:11:04;;;;;;;15.73;6.93;;;;;;;;;;5089416;28;20016;-73
2022/05/12 06:13:30;;;;;;;15.43;7.03;;;;;;;;;;5092803;28;20015;-72
2022/05/12 06:15:56;;;;;;;16.08;9.23;;;;;;;;;;5091725;28;20068;-76
2022/05/12 06:18:22;;;;;;;12.13;7.18;;;;;;;;;;5089930;28;20050;-74
2022/05/12 06:20:50;;;;;;;12.55;7.78;;;;;;;;;;5092886;28;20020;-74
2022/05/12 06:23:17;;;;;;;15.52;8.95;;;;;;;;;;5091486;28;20024;-75
2022/05/12 06:25:44;;;;;;;14.57;7.38;;;;;;;;;;5092051;28;20042;-74
2022/05/12 06:28:10;;;;;;;14.00;7.57;;;;;;;;;;5089821;28;20107;-73
2022/05/12 06:30:37;;;;;;;11.02;6.68;;;;;;;;;;5084358;28;20032;-73
2022/05/12 06:33:03;;;;;;;9.77;6.90;;;;;;;;;;5090672;28;20103;-74
2022/05/12 06:35:30;;;;;;;20.02;8.80;;;;;;;;;;5088524;28;20027;-73
2022/05/12 06:37:56;;;;;;;13.38;8.10;;;;;;;;;;5091967;28;20030;-73
2022/05/12 06:40:22;;;;;;;13.68;7.97;;;;;;;;;;5091774;27;20043;-73
2022/05/12 06:42:49;;;;;;;11.35;7.47;;;;;;;;;;5093760;28;20603;-72
2022/05/12 06:45:16;;;;;;;12.73;8.43;;;;;;;;;;5089380;28;20464;-73
2022/05/12 06:47:50;;;;;;;15.82;8.15;;;;;;;;;;5103859;28;20031;-73
2022/05/12 06:50:21;;;;;;;9.60;7.22;;;;;;;;;;5102520;28;20103;-74
2022/05/12 06:52:47;;;;;;;14.70;8.23;;;;;;;;;;5093367;27;20028;-73
2022/05/12 06:55:14;;;;;;;14.05;7.93;;;;;;;;;;5091054;28;20125;-73
2022/05/12 06:57:42;;;;;;;18.85;7.80;;;;;;;;;;5096373;28;20634;-78
2022/05/12 07:00:09;;;;;;;15.52;9.00;;;;;;;;;;5087206;27;20769;-79
2022/05/12 07:02:36;;;;;;;18.70;8.75;;;;;;;;;;5101147;28;20020;-73
2022/05/12 07:05:03;;;;;;;13.68;9.35;;;;;;;;;;5100951;28;20055;-78
2022/05/12 07:07:29;;;;;;;18.10;10.52;;;;;;;;;;5099611;28;20124;-76
2022/05/12 07:09:55;;;;;;;11.70;8.80;;;;;;;;;;5084568;28;20040;-75
2022/05/12 07:12:23;;;;;;;19.20;10.43;;;;;;;;;;5092235;27;20039;-74
2022/05/12 07:14:51;;;;;;;22.00;11.15;;;;;;;;;;5092071;28;20025;-75
2022/05/12 07:17:21;;;;;;;16.30;9.82;;;;;;;;;;5093610;28;20098;-86
2022/05/12 07:19:47;;;;;;;18.02;11.32;;;;;;;;;;5092667;28;20423;-74
2022/05/12 07:27:43;;;;;;;15.40;10.73;;;;;;;;;;5091750;28;20065;-74
2022/05/12 07:30:09;;;;;;;26.35;11.13;;;;;;;;;;5091722;28;20109;-74
2022/05/12 07:32:37;;;;;;;12.73;8.60;;;;;;;;;;5093339;28;20028;-81
2022/05/12 07:35:04;;;;;;;12.40;8.57;;;;;;;;;;5090926;28;20020;-74
2022/05/12 07:37:30;;;;;;;19.45;9.63;;;;;;;;;;5098047;27;20543;-78
2022/05/12 07:39:56;;;;;;;16.05;9.32;;;;;;;;;;5093586;28;20028;-75
2022/05/12 07:42:22;;;;;;;18.10;10.48;;;;;;;;;;5092463;28;20043;-74
2022/05/12 07:44:49;;;;;;;12.65;8.48;;;;;;;;;;5087380;28;20116;-78
2022/05/12 07:47:15;;;;;;;13.90;9.10;;;;;;;;;;5092416;28;20072;-74
2022/05/12 07:49:42;;;;;;;14.18;8.80;;;;;;;;;;5090509;28;20111;-73
2022/05/12 07:52:09;;;;;;;12.98;9.50;;;;;;;;;;5091221;28;20047;-73
2022/05/12 07:54:36;;;;;;;13.77;9.20;;;;;;;;;;5088491;27;20028;-73
2022/05/12 07:57:02;;;;;;;12.73;8.23;;;;;;;;;;5086970;28;20032;-74
2022/05/12 07:59:29;;;;;;;12.88;9.80;;;;;;;;;;5093848;28;20480;-74
2022/05/12 08:01:58;;;;;;;15.25;9.85;;;;;;;;;;5090536;28;20042;-74
2022/05/12 08:04:24;;;;;;;15.32;10.15;;;;;;;;;;5090765;28;20122;-74
2022/05/12 08:06:50;;;;;;;19.13;10.07;;;;;;;;;;5090307;28;20031;-74
2022/05/12 08:09:16;;;;;;;13.75;9.75;;;;;;;;;;5083972;28;20031;-73
2022/05/12 08:11:42;;;;;;;21.45;10.57;;;;;;;;;;5092299;28;20061;-75
2022/05/12 08:14:09;;;;;;;18.02;10.95;;;;;;;;;;5092844;28;20028;-74
2022/05/12 08:16:35;;;;;;;14.32;10.80;;;;;;;;;;5093653;28;20119;-74
2022/05/12 08:19:01;;;;;;;15.95;10.70;;;;;;;;;;5092846;27;20040;-73
2022/05/12 08:21:27;;;;;;;18.42;8.82;;;;;;;;;;5090904;28;20023;-74
2022/05/12 08:23:54;;;;;;;31.90;11.77;;;;;;;;;;5090068;28;20492;-74
2022/05/12 08:26:20;;;;;;;20.45;11.05;;;;;;;;;;5090146;28;20231;-74
2022/05/12 08:28:49;;;;;;;15.15;9.52;;;;;;;;;;5089525;27;20035;-74
2022/05/12 08:31:15;;;;;;;12.10;10.32;;;;;;;;;;5088449;28;20084;-74
2022/05/12 08:33:41;;;;;;;20.10;10.48;;;;;;;;;;5082524;28;20047;-74
2022/05/12 08:36:08;;;;;;;25.48;10.73;;;;;;;;;;5081846;28;20051;-74
2022/05/12 08:38:38;;;;;;;15.45;10.38;;;;;;;;;;5081376;28;20035;-74
2022/05/12 08:41:04;;;;;;;14.32;9.68;;;;;;;;;;5083999;28;20031;-74
2022/05/12 08:43:42;;;;;;;21.77;9.10;;;;;;;;;;5097023;28;20077;-73
2022/05/12 08:46:10;;;;;;;15.57;9.68;;;;;;;;;;5098562;28;20362;-73
2022/05/12 08:48:39;;;;;;;16.42;9.23;;;;;;;;;;5075744;28;20031;-74
2022/05/12 08:51:05;;;;;;;14.50;9.23;;;;;;;;;;5080917;28;20527;-74
2022/05/12 08:53:35;;;;;;;11.07;8.82;;;;;;;;;;5099767;28;20093;-75
2022/05/12 08:56:01;;;;;;;14.25;8.73;;;;;;;;;;5099497;28;20031;-75
2022/05/12 08:58:33;;;;;;;12.02;8.48;;;;;;;;;;5099251;28;20043;-74
2022/05/12 09:01:14;;;;;;;13.18;9.18;;;;;;;;;;5082614;28;20039;-74
2022/05/12 09:03:49;;;;;;;13.40;8.85;;;;;;;;;;5081250;28;20114;-73
2022/05/12 09:06:20;;;;;;;13.13;8.77;;;;;;;;;;5080270;28;20028;-76
2022/05/12 09:09:05;;;;;;;11.68;8.05;;;;;;;;;;5083074;28;20020;-76
2022/05/12 09:11:39;;;;;;;15.82;8.70;;;;;;;;;;5083547;28;20039;-79
2022/05/12 09:14:08;;;;;;;12.82;8.65;;;;;;;;;;5088159;28;20034;-79
2022/05/12 09:16:34;;;;;;;20.13;10.25;;;;;;;;;;5098997;28;20032;-75
2022/05/12 09:19:01;;;;;;;10.20;8.45;;;;;;;;;;5081884;27;20042;-73
2022/05/12 09:21:32;;;;;;;13.00;9.00;;;;;;;;;;5084226;28;20051;-75
2022/05/12 09:23:59;;;;;;;;;;;;;;;;;;5086494;28;20020;-77
2022/05/12 09:26:28;;;;;;;15.35;9.95;;;;;;;;;;5089912;28;19965;-75
2022/05/12 09:29:06;;;;;;;13.75;8.35;;;;;;;;;;5089167;28;20020;-74
2022/05/12 09:31:33;;;;;;;12.93;8.80;;;;;;;;;;5087735;28;20047;-75
2022/05/12 09:34:11;;;;;;;13.73;9.73;;;;;;;;;;5087613;28;20016;-73
2022/05/12 09:36:38;;;;;;;14.63;9.43;;;;;;;;;;5090924;28;20470;-73
2022/05/12 09:39:04;;;;;;;11.20;8.27;;;;;;;;;;5088662;28;20548;-73
2022/05/12 09:41:37;;;;;;;8.55;6.18;;;;;;;;;;5090386;27;20027;-74
2022/05/12 09:44:23;;;;;;;10.45;7.32;;;;;;;;;;5087413;28;20028;-74
2022/05/12 09:46:58;;;;;;;10.18;6.88;;;;;;;;;;5090300;28;20032;-79
2022/05/12 09:49:25;;;;;;;11.70;7.03;;;;;;;;;;5088835;28;20027;-74
2022/05/12 09:51:52;;;;;;;10.32;6.70;;;;;;;;;;5083444;28;20112;-75
2022/05/12 09:54:23;;;;;;;12.43;6.35;;;;;;;;;;5088500;28;20689;-73
2022/05/12 09:57:01;;;;;;;9.73;6.85;;;;;;;;;;5089820;28;20046;-74
2022/05/12 09:59:28;;;;;;;9.73;6.93;;;;;;;;;;5087497;28;20054;-75
2022/05/12 10:01:57;;;;;;;12.88;7.38;;;;;;;;;;5086912;28;20032;-75
2022/05/12 10:10:14;;;;;;;15.80;7.70;;;;;;;;;;5091567;27;20039;-74
2022/05/12 10:12:47;;;;;;;14.90;8.10;;;;;;;;;;5081947;27;20032;-77
2022/05/12 10:15:16;;;;;;;12.98;7.85;;;;;;;;;;5078965;28;20439;-73
2022/05/12 10:17:56;;;;;;;12.88;8.27;;;;;;;;;;5083377;28;20028;-73
2022/05/12 10:20:24;;;;;;;10.38;7.55;;;;;;;;;;5108825;27;20100;-74
2022/05/12 10:22:54;;;;;;;15.30;8.30;;;;;;;;;;5100778;27;20559;-75
2022/05/12 10:25:39;;;;;;;11.65;7.78;;;;;;;;;;5101850;28;20035;-73
2022/05/12 10:28:06;;;;;;;10.73;7.85;;;;;;;;;;5092322;28;20019;-73
2022/05/12 10:30:35;;;;;;;12.57;8.13;;;;;;;;;;5090971;28;20028;-75
2022/05/12 10:33:10;;;;;;;12.98;7.80;;;;;;;;;;5089840;28;20043;-74
2022/05/12 10:35:38;;;;;;;13.18;7.85;;;;;;;;;;5090491;28;20099;-77
2022/05/12 10:38:10;;;;;;;10.90;6.97;;;;;;;;;;5083052;28;20087;-78
2022/05/12 10:40:39;;;;;;;14.82;7.97;;;;;;;;;;5083731;28;20456;-73
2022/05/12 10:43:11;;;;;;;11.75;7.40;;;;;;;;;;5099971;28;20502;-73
2022/05/12 10:45:40;;;;;;;11.60;6.57;;;;;;;;;;5100649;28;20032;-73
2022/05/12 10:48:16;;;;;;;9.93;6.53;;;;;;;;;;5086540;28;20046;-73
2022/05/12 10:50:45;;;;;;;10.00;6.45;;;;;;;;;;5084898;28;20056;-74
2022/05/12 10:53:20;;;;;;;10.55;7.13;;;;;;;;;;5087904;28;20034;-73
2022/05/12 10:55:52;;;;;;;10.48;6.85;;;;;;;;;;5092626;28;20672;-74
2022/05/12 10:58:22;;;;;;;9.15;6.30;;;;;;;;;;5087284;28;20593;-73
2022/05/12 11:00:48;;;;;;;9.80;6.93;;;;;;;;;;5098811;28;20036;-74
2022/05/12 11:03:18;;;;;;;11.88;7.03;;;;;;;;;;5092497;28;20027;-74
2022/05/12 11:05:47;;;;;;;16.83;6.78;;;;;;;;;;5099260;28;20030;-75
2022/05/12 11:08:17;;;;;;;9.88;6.85;;;;;;;;;;5091293;28;20120;-74
2022/05/12 11:10:47;;;;;;;9.23;6.90;;;;;;;;;;5095142;28;20729;-74
2022/05/12 11:13:18;;;;;;;14.70;6.93;;;;;;;;;;5086293;28;20043;-74
2022/05/12 11:15:47;;;;;;;12.30;6.93;;;;;;;;;;5084318;28;20484;-74
2022/05/12 11:18:26;;;;;;;10.20;7.00;;;;;;;;;;5099918;28;20117;-73
2022/05/12 11:20:58;;;;;;;12.43;6.90;;;;;;;;;;5099061;28;20042;-73
2022/05/12 11:23:36;;;;;;;10.82;6.78;;;;;;;;;;5095641;28;20019;-73
2022/05/12 11:26:11;;;;;;;9.57;5.85;;;;;;;;;;5083741;28;20028;-72
2022/05/12 11:31:57;;;;;;;12.57;5.85;;;;;;;;;;5103882;27;20123;-73
2022/05/12 11:34:25;;;;;;;10.75;6.07;;;;;;;;;;5106527;27;20027;-73
2022/05/12 11:36:52;;;;;;;10.75;5.82;;;;;;;;;;5120227;27;20058;-73
2022/05/12 11:39:51;;;;;;;8.20;5.95;;;;;;;;;;5084640;28;20020;-73
2022/05/12 11:42:21;;;;;;;8.48;5.95;;;;;;;;;;5116660;27;20738;-73
2022/05/12 11:44:59;;;;;;;10.73;5.78;;;;;;;;;;5117867;27;20488;-73
2022/05/12 11:47:44;;;;;;;6.60;5.90;;;;;;;;;;5099493;28;20128;-73
2022/05/12 11:50:24;;;;;;;7.97;5.57;;;;;;;;;;5106278;27;20491;-73
2022/05/12 11:52:50;;;;;;;9.63;6.13;;;;;;;;;;5122271;27;20402;-73
2022/05/12 11:55:22;;;;;;;10.68;5.80;;;;;;;;;;5102059;28;20453;-73
2022/05/12 11:58:03;;;;;;;11.30;6.38;;;;;;;;;;5082662;28;20047;-73
2022/05/12 12:00:35;;;;;;;12.57;5.97;;;;;;;;;;5097208;27;20056;-73
2022/05/12 12:03:21;;;;;;;8.68;5.60;;;;;;;;;;5122976;27;20027;-73
2022/05/12 12:05:50;;;;;;;6.95;5.55;;;;;;;;;;5108185;27;20035;-73
2022/05/12 12:08:46;;;;;;;13.68;6.28;;;;;;;;;;5094202;28;20020;-73
2022/05/12 12:11:15;;;;;;;9.32;5.95;;;;;;;;;;5075022;28;20044;-71
2022/05/12 12:13:41;;;;;;;9.15;5.80;;;;;;;;;;5081850;28;20518;-73
2022/05/12 12:16:07;;;;;;;9.25;6.30;;;;;;;;;;5085706;28;20047;-72
2022/05/12 12:18:33;;;;;;;12.43;6.45;;;;;;;;;;5085578;28;20039;-73
2022/05/12 12:21:01;;;;;;;9.60;6.32;;;;;;;;;;5080021;28;20551;-73
2022/05/12 12:23:37;;;;;;;9.20;5.22;;;;;;;;;;5082708;28;20035;-73
2022/05/12 12:26:06;;;;;;;9.25;5.70;;;;;;;;;;5081888;28;20081;-73
2022/05/12 12:28:44;;;;;;;10.10;5.63;;;;;;;;;;5094844;28;20035;-73
2022/05/12 12:31:21;;;;;;;8.07;5.82;;;;;;;;;;5101731;28;20383;-73
2022/05/12 12:34:08;;;;;;;8.13;5.15;;;;;;;;;;5091149;27;20038;-73
2022/05/12 12:36:37;;;;;;;10.40;6.32;;;;;;;;;;5096301;27;20107;-73
2022/05/12 12:39:13;;;;;;;10.82;6.03;;;;;;;;;;5079120;28;20495;-73
2022/05/12 12:41:43;;;;;;;7.72;5.38;;;;;;;;;;5081558;27;20058;-73
2022/05/12 12:44:14;;;;;;;10.05;5.47;;;;;;;;;;5090345;28;20023;-73
2022/05/12 12:46:59;;;;;;;11.67;5.87;;;;;;;;;;5087079;28;20084;-74
2022/05/12 12:49:28;;;;;;;7.70;5.30;;;;;;;;;;5088920;28;20563;-73
2022/05/12 12:52:04;;;;;;;10.05;5.55;;;;;;;;;;5092953;28;20518;-73
2022/05/12 12:57:18;;;;;;;8.63;6.18;;;;;;;;;;5089851;28;20058;-73
2022/05/12 12:59:50;;;;;;;10.68;5.60;;;;;;;;;;5086922;28;20103;-73
2022/05/12 13:02:27;;;;;;;8.05;5.53;;;;;;;;;;5090469;28;20016;-73
2022/05/12 13:04:56;;;;;;;11.88;6.50;;;;;;;;;;5090767;28;20116;-73
2022/05/12 13:07:26;;;;;;;7.93;6.85;;;;;;;;;;5087083;28;20031;-73
2022/05/12 13:09:54;;;;;;;9.98;6.30;;;;;;;;;;5087884;28;20030;-74
2022/05/12 13:12:21;;;;;;;8.15;6.05;;;;;;;;;;5089319;28;20488;-73
2022/05/12 13:14:51;;;;;;;7.57;6.00;;;;;;;;;;5089137;27;20024;-73
2022/05/12 13:17:41;;;;;;;9.60;5.88;;;;;;;;;;5089111;28;20031;-73
2022/05/12 13:20:15;;;;;;;9.48;5.88;;;;;;;;;;5088484;28;20405;-73
2022/05/12 13:22:52;;;;;;;9.10;6.10;;;;;;;;;;5089984;28;20534;-73
2022/05/12 13:25:20;;;;;;;10.93;6.10;;;;;;;;;;5087926;28;20032;-73
2022/05/12 13:27:46;;;;;;;9.13;6.15;;;;;;;;;;5090445;28;20032;-73
2022/05/12 13:30:16;;;;;;;9.73;6.22;;;;;;;;;;5087563;28;20024;-73
2022/05/12 13:32:47;;;;;;;10.05;5.68;;;;;;;;;;5088832;28;20123;-73
2022/05/12 13:35:13;;;;;;;8.47;5.80;;;;;;;;;;5091447;28;20086;-73
2022/05/12 13:37:45;;;;;;;12.00;6.25;;;;;;;;;;5091302;28;20260;-74
2022/05/12 13:40:12;;;;;;;9.48;6.53;;;;;;;;;;5092494;28;20042;-73
2022/05/12 13:42:43;;;;;;;9.30;6.28;;;;;;;;;;5090104;28;20016;-74
2022/05/12 13:45:23;;;;;;;8.27;6.70;;;;;;;;;;5089180;28;20051;-74
2022/05/12 13:47:50;;;;;;;7.07;6.22;;;;;;;;;;5084098;28;20643;-74
2022/05/12 13:50:17;;;;;;;10.77;7.32;;;;;;;;;;5089660;28;20020;-74
2022/05/12 13:52:45;;;;;;;10.05;7.53;;;;;;;;;;5088597;28;20040;-74
2022/05/12 13:55:28;;;;;;;9.75;7.45;;;;;;;;;;5083439;28;20015;-74
2022/05/12 13:58:03;;;;;;;11.50;7.63;;;;;;;;;;5086647;28;20129;-73
2022/05/12 14:00:39;;;;;;;16.52;7.28;;;;;;;;;;5084735;28;20379;-74
2022/05/12 14:03:14;;;;;;;14.27;8.40;;;;;;;;;;5088771;28;20039;-74
2022/05/12 14:05:40;;;;;;;9.02;7.72;;;;;;;;;;5086885;28;20543;-74
2022/05/12 14:08:09;;;;;;;11.48;7.45;;;;;;;;;;5088143;28;20058;-73
2022/05/12 14:10:35;;;;;;;9.45;7.82;;;;;;;;;;5087741;28;20092;-74
2022/05/12 14:21:19;;;;;;;8.30;7.10;;;;;;;;;;5088952;28;20054;-73
2022/05/12 14:23:46;;;;;;;13.65;8.63;;;;;;;;;;5088171;28;20797;-74
2022/05/12 14:26:12;;;;;;;9.90;7.65;;;;;;;;;;5087002;28;20111;-75
2022/05/12 14:28:39;;;;;;;12.57;7.40;;;;;;;;;;5091233;28;20508;-74
2022/05/12 14:31:05;;;;;;;9.57;7.45;;;;;;;;;;5090506;28;20035;-74
2022/05/12 14:33:32;;;;;;;9.75;7.65;;;;;;;;;;5086793;28;20035;-75
2022/05/12 14:35:59;;;;;;;9.73;6.93;;;;;;;;;;5090274;28;20019;-74
2022/05/12 14:38:25;;;;;;;13.68;7.15;;;;;;;;;;5090816;28;20042;-74
2022/05/12 14:40:52;;;;;;;10.32;6.85;;;;;;;;;;5090128;28;20510;-75
2022/05/12 14:43:18;;;;;;;9.85;6.80;;;;;;;;;;5079830;28;20031;-75
2022/05/12 14:45:45;;;;;;;9.40;7.00;;;;;;;;;;5093746;28;20024;-74
2022/05/12 14:48:11;;;;;;;7.22;6.50;;;;;;;;;;5081728;28;20029;-74
2022/05/12 14:50:38;;;;;;;12.95;6.93;;;;;;;;;;5081603;28;20028;-75
2022/05/12 14:53:08;;;;;;;9.27;7.00;;;;;;;;;;5086830;28;20092;-74
2022/05/12 14:55:38;;;;;;;10.80;6.97;;;;;;;;;;5094489;28;20031;-76
2022/05/12 14:58:04;;;;;;;11.30;6.63;;;;;;;;;;5083238;28;20031;-74
2022/05/12 15:00:31;;;;;;;6.72;5.95;;;;;;;;;;5084630;28;20152;-74
2022/05/12 15:02:57;;;;;;;7.97;6.22;;;;;;;;;;5099261;28;20058;-74
2022/05/12 15:05:24;;;;;;;9.75;6.97;;;;;;;;;;5103247;28;20020;-74
2022/05/12 15:07:50;;;;;;;12.32;6.28;;;;;;;;;;5102661;28;20029;-73
2022/05/12 15:10:16;;;;;;;9.85;6.30;;;;;;;;;;5103091;28;20418;-74
2022/05/12 15:12:43;;;;;;;8.82;6.75;;;;;;;;;;5102463;28;20272;-74
2022/05/12 15:15:11;;;;;;;11.00;7.35;;;;;;;;;;5102596;28;20040;-73